Terminal Aerodrome Forecast
Issued by NWS

Home | Current Version | Previous Version | Text Only | Print | Product List | Glossary Off
Versions: 1 2 3 4 5 6 7 8 9 10 11 12 13 14 15 16 17

772
FTUS43 KFGF 291130
TAFBJI
TAF
KBJI 291130Z 2912/3012 30012KT P6SM VCSH OVC008
     FM291700 30015G22KT P6SM VCSH OVC015
     FM292100 30015G23KT P6SM OVC025
     FM300200 29012KT P6SM OVC025
     FM300600 29010KT P6SM VCSH BKN015
     FM300800 29010KT P6SM VCSH OVC008=

USA.gov is the U.S. government's official web portal to all federal, state and local government web resources and services.